sensor_id;sensor_type;location;lat;lon;timestamp;temperature;humidity
75705;DHT22;70013;44.726;37.760;2023-05-19T00:00:08;22.04;38.01
75705;DHT22;70013;44.726;37.760;2023-05-19T00:01:14;22.04;38.12
75705;DHT22;70013;44.726;37.760;2023-05-19T00:02:17;22.02;38.15
75705;DHT22;70013;44.726;37.760;2023-05-19T00:03:21;22.02;38.23
75705;DHT22;70013;44.726;37.760;2023-05-19T00:04:23;22.03;38.15
75705;DHT22;70013;44.726;37.760;2023-05-19T00:05:24;22.03;38.17
75705;DHT22;70013;44.726;37.760;2023-05-19T00:06:29;22.01;38.05
75705;DHT22;70013;44.726;37.760;2023-05-19T00:07:32;22.01;38.25
75705;DHT22;70013;44.726;37.760;2023-05-19T00:08:36;22.01;38.24
75705;DHT22;70013;44.726;37.760;2023-05-19T00:09:38;22.01;38.22
75705;DHT22;70013;44.726;37.760;2023-05-19T00:10:40;21.99;37.89
75705;DHT22;70013;44.726;37.760;2023-05-19T00:11:42;22.01;37.96
75705;DHT22;70013;44.726;37.760;2023-05-19T00:12:43;21.98;38.09
75705;DHT22;70013;44.726;37.760;2023-05-19T00:13:45;21.97;38.02
75705;DHT22;70013;44.726;37.760;2023-05-19T00:14:49;21.99;38.15
75705;DHT22;70013;44.726;37.760;2023-05-19T00:15:52;21.98;38.02
75705;DHT22;70013;44.726;37.760;2023-05-19T00:16:54;21.96;38.14
75705;DHT22;70013;44.726;37.760;2023-05-19T00:17:58;21.96;38.24
75705;DHT22;70013;44.726;37.760;2023-05-19T00:19:00;21.95;38.23
75705;DHT22;70013;44.726;37.760;2023-05-19T00:20:03;21.93;38.19
75705;DHT22;70013;44.726;37.760;2023-05-19T00:21:07;21.94;38.22
75705;DHT22;70013;44.726;37.760;2023-05-19T00:22:09;21.93;38.28
75705;DHT22;70013;44.726;37.760;2023-05-19T00:23:10;21.92;38.28
75705;DHT22;70013;44.726;37.760;2023-05-19T00:24:12;21.91;38.17
75705;DHT22;70013;44.726;37.760;2023-05-19T00:25:13;21.91;38.28
75705;DHT22;70013;44.726;37.760;2023-05-19T00:26:14;21.91;38.11
75705;DHT22;70013;44.726;37.760;2023-05-19T00:27:25;21.89;38.10
75705;DHT22;70013;44.726;37.760;2023-05-19T00:28:27;21.90;38.21
75705;DHT22;70013;44.726;37.760;2023-05-19T00:29:28;21.89;38.20
75705;DHT22;70013;44.726;37.760;2023-05-19T00:30:29;21.88;38.30
75705;DHT22;70013;44.726;37.760;2023-05-19T00:31:30;21.85;38.22
75705;DHT22;70013;44.726;37.760;2023-05-19T00:32:35;21.85;38.27
75705;DHT22;70013;44.726;37.760;2023-05-19T00:33:37;21.85;38.21
75705;DHT22;70013;44.726;37.760;2023-05-19T00:34:38;21.85;38.30
75705;DHT22;70013;44.726;37.760;2023-05-19T00:35:39;21.84;38.41
75705;DHT22;70013;44.726;37.760;2023-05-19T00:36:45;21.85;38.37
75705;DHT22;70013;44.726;37.760;2023-05-19T00:37:48;21.84;38.48
75705;DHT22;70013;44.726;37.760;2023-05-19T00:38:49;21.85;38.54
75705;DHT22;70013;44.726;37.760;2023-05-19T00:39:51;21.84;38.47
75705;DHT22;70013;44.726;37.760;2023-05-19T00:40:53;21.83;38.60
75705;DHT22;70013;44.726;37.760;2023-05-19T00:41:54;21.82;38.45
75705;DHT22;70013;44.726;37.760;2023-05-19T00:42:56;21.80;38.63
75705;DHT22;70013;44.726;37.760;2023-05-19T00:43:57;21.80;38.65
75705;DHT22;70013;44.726;37.760;2023-05-19T00:44:58;21.78;38.68
75705;DHT22;70013;44.726;37.760;2023-05-19T00:46:01;21.76;38.72
75705;DHT22;70013;44.726;37.760;2023-05-19T00:47:02;21.77;38.72
75705;DHT22;70013;44.726;37.760;2023-05-19T00:48:04;21.76;38.72
75705;DHT22;70013;44.726;37.760;2023-05-19T00:49:05;21.75;38.61
75705;DHT22;70013;44.726;37.760;2023-05-19T00:50:07;21.73;38.66
75705;DHT22;70013;44.726;37.760;2023-05-19T00:51:08;21.73;38.68
75705;DHT22;70013;44.726;37.760;2023-05-19T00:52:10;21.73;38.63
75705;DHT22;70013;44.726;37.760;2023-05-19T00:53:13;21.72;38.81
75705;DHT22;70013;44.726;37.760;2023-05-19T00:54:15;21.70;38.70
75705;DHT22;70013;44.726;37.760;2023-05-19T00:55:16;21.70;38.81
75705;DHT22;70013;44.726;37.760;2023-05-19T00:56:18;21.69;38.72
75705;DHT22;70013;44.726;37.760;2023-05-19T00:57:21;21.68;38.91
75705;DHT22;70013;44.726;37.760;2023-05-19T00:58:24;21.66;38.75
75705;DHT22;70013;44.726;37.760;2023-05-19T00:59:29;21.65;38.97
75705;DHT22;70013;44.726;37.760;2023-05-19T01:00:30;21.64;38.98
75705;DHT22;70013;44.726;37.760;2023-05-19T01:01:32;21.64;39.00
75705;DHT22;70013;44.726;37.760;2023-05-19T01:02:35;21.61;38.78
75705;DHT22;70013;44.726;37.760;2023-05-19T01:03:39;21.58;38.93
75705;DHT22;70013;44.726;37.760;2023-05-19T01:04:44;21.59;38.86
75705;DHT22;70013;44.726;37.760;2023-05-19T01:05:45;21.59;38.97
75705;DHT22;70013;44.726;37.760;2023-05-19T01:06:48;21.57;39.03
75705;DHT22;70013;44.726;37.760;2023-05-19T01:07:55;21.55;39.17
75705;DHT22;70013;44.726;37.760;2023-05-19T01:08:56;21.54;39.16
75705;DHT22;70013;44.726;37.760;2023-05-19T01:09:58;21.52;39.19
75705;DHT22;70013;44.726;37.760;2023-05-19T01:10:59;21.51;39.05
75705;DHT22;70013;44.726;37.760;2023-05-19T01:12:00;21.50;39.13
75705;DHT22;70013;44.726;37.760;2023-05-19T01:13:03;21.50;39.15
75705;DHT22;70013;44.726;37.760;2023-05-19T01:14:05;21.49;39.14
75705;DHT22;70013;44.726;37.760;2023-05-19T01:15:07;21.48;39.18
75705;DHT22;70013;44.726;37.760;2023-05-19T01:18:27;21.46;39.33
75705;DHT22;70013;44.726;37.760;2023-05-19T01:19:34;21.44;39.36
75705;DHT22;70013;44.726;37.760;2023-05-19T01:20:43;21.42;39.33
75705;DHT22;70013;44.726;37.760;2023-05-19T01:22:31;21.39;39.34
75705;DHT22;70013;44.726;37.760;2023-05-19T01:23:58;21.37;39.50
75705;DHT22;70013;44.726;37.760;2023-05-19T01:26:44;21.33;39.64
75705;DHT22;70013;44.726;37.760;2023-05-19T01:28:25;21.31;39.68
75705;DHT22;70013;44.726;37.760;2023-05-19T01:29:54;21.30;39.78
75705;DHT22;70013;44.726;37.760;2023-05-19T01:31:00;21.27;39.82
75705;DHT22;70013;44.726;37.760;2023-05-19T01:32:03;21.25;39.80
75705;DHT22;70013;44.726;37.760;2023-05-19T01:33:09;21.25;39.83
75705;DHT22;70013;44.726;37.760;2023-05-19T01:34:13;21.23;39.91
75705;DHT22;70013;44.726;37.760;2023-05-19T01:35:16;21.24;39.87
75705;DHT22;70013;44.726;37.760;2023-05-19T01:36:19;21.24;39.88
75705;DHT22;70013;44.726;37.760;2023-05-19T01:37:22;21.23;39.87
75705;DHT22;70013;44.726;37.760;2023-05-19T01:38:24;21.22;39.87
75705;DHT22;70013;44.726;37.760;2023-05-19T01:39:27;21.22;39.91
75705;DHT22;70013;44.726;37.760;2023-05-19T01:40:29;21.20;39.90
75705;DHT22;70013;44.726;37.760;2023-05-19T01:41:33;21.20;39.93
75705;DHT22;70013;44.726;37.760;2023-05-19T01:42:37;21.21;39.94
75705;DHT22;70013;44.726;37.760;2023-05-19T01:43:40;21.20;39.97
75705;DHT22;70013;44.726;37.760;2023-05-19T01:44:42;21.19;39.97
75705;DHT22;70013;44.726;37.760;2023-05-19T01:45:44;21.20;39.90
75705;DHT22;70013;44.726;37.760;2023-05-19T01:46:46;21.20;40.05
75705;DHT22;70013;44.726;37.760;2023-05-19T01:47:51;21.22;39.89
75705;DHT22;70013;44.726;37.760;2023-05-19T01:48:53;21.20;39.94
75705;DHT22;70013;44.726;37.760;2023-05-19T01:49:55;21.20;40.05
75705;DHT22;70013;44.726;37.760;2023-05-19T01:50:57;21.20;40.07
75705;DHT22;70013;44.726;37.760;2023-05-19T01:51:58;21.18;40.02
75705;DHT22;70013;44.726;37.760;2023-05-19T01:53:00;21.19;40.06
75705;DHT22;70013;44.726;37.760;2023-05-19T01:54:01;21.18;40.10
75705;DHT22;70013;44.726;37.760;2023-05-19T01:55:03;21.18;40.06
75705;DHT22;70013;44.726;37.760;2023-05-19T01:56:06;21.16;39.98
75705;DHT22;70013;44.726;37.760;2023-05-19T02:04:24;21.20;39.97
75705;DHT22;70013;44.726;37.760;2023-05-19T02:05:30;21.20;39.91
75705;DHT22;70013;44.726;37.760;2023-05-19T02:06:41;21.20;39.97
75705;DHT22;70013;44.726;37.760;2023-05-19T02:07:52;21.20;39.92
75705;DHT22;70013;44.726;37.760;2023-05-19T02:09:33;21.23;39.93
75705;DHT22;70013;44.726;37.760;2023-05-19T02:10:27;21.24;39.81
75705;DHT22;70013;44.726;37.760;2023-05-19T02:11:37;21.25;39.68
75705;DHT22;70013;44.726;37.760;2023-05-19T02:12:40;21.27;39.75
75705;DHT22;70013;44.726;37.760;2023-05-19T02:13:43;21.29;39.68
75705;DHT22;70013;44.726;37.760;2023-05-19T02:16:10;21.34;39.60
75705;DHT22;70013;44.726;37.760;2023-05-19T02:17:15;21.36;39.59
75705;DHT22;70013;44.726;37.760;2023-05-19T02:18:18;21.38;39.39
75705;DHT22;70013;44.726;37.760;2023-05-19T02:19:32;21.43;39.49
75705;DHT22;70013;44.726;37.760;2023-05-19T02:20:33;21.44;39.51
75705;DHT22;70013;44.726;37.760;2023-05-19T02:21:35;21.46;39.48
75705;DHT22;70013;44.726;37.760;2023-05-19T02:22:36;21.48;39.34
75705;DHT22;70013;44.726;37.760;2023-05-19T02:23:40;21.50;39.36
75705;DHT22;70013;44.726;37.760;2023-05-19T02:24:42;21.51;39.34
75705;DHT22;70013;44.726;37.760;2023-05-19T02:25:45;21.53;39.17
75705;DHT22;70013;44.726;37.760;2023-05-19T02:26:46;21.57;39.05
75705;DHT22;70013;44.726;37.760;2023-05-19T02:27:50;21.60;39.07
75705;DHT22;70013;44.726;37.760;2023-05-19T02:28:51;21.60;39.04
75705;DHT22;70013;44.726;37.760;2023-05-19T02:29:52;21.63;39.00
75705;DHT22;70013;44.726;37.760;2023-05-19T02:30:54;21.64;39.03
75705;DHT22;70013;44.726;37.760;2023-05-19T02:31:56;21.65;38.96
75705;DHT22;70013;44.726;37.760;2023-05-19T02:32:57;21.66;38.92
75705;DHT22;70013;44.726;37.760;2023-05-19T02:33:59;21.68;38.88
75705;DHT22;70013;44.726;37.760;2023-05-19T02:35:00;21.70;38.89
75705;DHT22;70013;44.726;37.760;2023-05-19T02:36:02;21.73;38.78
75705;DHT22;70013;44.726;37.760;2023-05-19T02:37:04;21.74;38.79
75705;DHT22;70013;44.726;37.760;2023-05-19T02:38:07;21.76;38.69
75705;DHT22;70013;44.726;37.760;2023-05-19T02:39:09;21.78;38.70
75705;DHT22;70013;44.726;37.760;2023-05-19T02:40:11;21.80;38.76
75705;DHT22;70013;44.726;37.760;2023-05-19T02:41:15;21.83;38.82
75705;DHT22;70013;44.726;37.760;2023-05-19T02:42:16;21.87;38.52
75705;DHT22;70013;44.726;37.760;2023-05-19T02:43:18;21.92;38.54
75705;DHT22;70013;44.726;37.760;2023-05-19T02:44:20;21.93;38.36
75705;DHT22;70013;44.726;37.760;2023-05-19T02:45:21;21.98;38.05
75705;DHT22;70013;44.726;37.760;2023-05-19T02:46:23;22.02;38.26
75705;DHT22;70013;44.726;37.760;2023-05-19T02:47:24;22.06;38.25
75705;DHT22;70013;44.726;37.760;2023-05-19T02:48:25;22.09;38.28
75705;DHT22;70013;44.726;37.760;2023-05-19T02:49:27;22.16;38.20
75705;DHT22;70013;44.726;37.760;2023-05-19T02:50:30;22.20;38.19
75705;DHT22;70013;44.726;37.760;2023-05-19T02:51:32;22.25;38.48
75705;DHT22;70013;44.726;37.760;2023-05-19T02:52:33;22.31;38.11
75705;DHT22;70013;44.726;37.760;2023-05-19T02:53:34;22.38;37.99
75705;DHT22;70013;44.726;37.760;2023-05-19T02:54:36;22.42;37.79
75705;DHT22;70013;44.726;37.760;2023-05-19T02:55:37;22.51;37.53
75705;DHT22;70013;44.726;37.760;2023-05-19T02:56:39;22.54;37.62
75705;DHT22;70013;44.726;37.760;2023-05-19T02:57:40;22.62;37.68
75705;DHT22;70013;44.726;37.760;2023-05-19T02:58:42;22.71;37.56
75705;DHT22;70013;44.726;37.760;2023-05-19T02:59:43;22.81;37.66
75705;DHT22;70013;44.726;37.760;2023-05-19T03:00:45;22.91;37.45
75705;DHT22;70013;44.726;37.760;2023-05-19T03:01:46;23.01;37.56
75705;DHT22;70013;44.726;37.760;2023-05-19T03:02:48;23.10;37.18
75705;DHT22;70013;44.726;37.760;2023-05-19T03:03:49;23.23;37.13
75705;DHT22;70013;44.726;37.760;2023-05-19T03:04:51;23.32;36.43
75705;DHT22;70013;44.726;37.760;2023-05-19T03:05:53;23.44;36.63
75705;DHT22;70013;44.726;37.760;2023-05-19T03:06:54;23.56;36.50
75705;DHT22;70013;44.726;37.760;2023-05-19T03:07:56;23.66;36.18
75705;DHT22;70013;44.726;37.760;2023-05-19T03:08:57;23.77;36.18
75705;DHT22;70013;44.726;37.760;2023-05-19T03:09:59;23.89;35.76
75705;DHT22;70013;44.726;37.760;2023-05-19T03:11:03;24.01;35.59
75705;DHT22;70013;44.726;37.760;2023-05-19T03:12:05;24.14;34.97
75705;DHT22;70013;44.726;37.760;2023-05-19T03:13:07;24.26;34.73
75705;DHT22;70013;44.726;37.760;2023-05-19T03:14:08;24.36;34.57
75705;DHT22;70013;44.726;37.760;2023-05-19T03:15:10;24.49;34.11
75705;DHT22;70013;44.726;37.760;2023-05-19T03:16:13;24.64;34.34
75705;DHT22;70013;44.726;37.760;2023-05-19T03:17:14;24.75;33.67
75705;DHT22;70013;44.726;37.760;2023-05-19T03:18:16;24.91;33.52
75705;DHT22;70013;44.726;37.760;2023-05-19T03:19:17;25.03;33.28
75705;DHT22;70013;44.726;37.760;2023-05-19T03:20:18;25.18;33.13
75705;DHT22;70013;44.726;37.760;2023-05-19T03:21:20;25.32;33.12
75705;DHT22;70013;44.726;37.760;2023-05-19T03:22:21;25.46;33.11
75705;DHT22;70013;44.726;37.760;2023-05-19T03:23:22;25.61;32.62
75705;DHT22;70013;44.726;37.760;2023-05-19T03:24:24;25.75;32.38
75705;DHT22;70013;44.726;37.760;2023-05-19T03:25:25;25.92;32.28
75705;DHT22;70013;44.726;37.760;2023-05-19T03:26:28;26.09;32.15
75705;DHT22;70013;44.726;37.760;2023-05-19T03:27:31;26.26;31.99
75705;DHT22;70013;44.726;37.760;2023-05-19T03:28:32;26.41;31.38
75705;DHT22;70013;44.726;37.760;2023-05-19T03:29:34;26.61;31.14
75705;DHT22;70013;44.726;37.760;2023-05-19T03:30:37;26.77;31.09
75705;DHT22;70013;44.726;37.760;2023-05-19T03:31:46;26.97;30.94
75705;DHT22;70013;44.726;37.760;2023-05-19T03:32:48;27.15;30.67
75705;DHT22;70013;44.726;37.760;2023-05-19T03:33:55;27.36;29.83
75705;DHT22;70013;44.726;37.760;2023-05-19T03:35:00;27.51;29.83
75705;DHT22;70013;44.726;37.760;2023-05-19T03:36:01;27.56;29.38
75705;DHT22;70013;44.726;37.760;2023-05-19T03:37:08;27.74;29.35
75705;DHT22;70013;44.726;37.760;2023-05-19T03:38:13;27.91;29.64
75705;DHT22;70013;44.726;37.760;2023-05-19T03:39:22;27.81;29.26
75705;DHT22;70013;44.726;37.760;2023-05-19T03:40:23;27.86;29.00
75705;DHT22;70013;44.726;37.760;2023-05-19T03:41:27;27.91;28.65
75705;DHT22;70013;44.726;37.760;2023-05-19T03:42:30;28.01;28.33
75705;DHT22;70013;44.726;37.760;2023-05-19T03:43:31;28.10;28.11
75705;DHT22;70013;44.726;37.760;2023-05-19T03:44:37;28.26;28.06
75705;DHT22;70013;44.726;37.760;2023-05-19T03:45:38;28.38;27.63
75705;DHT22;70013;44.726;37.760;2023-05-19T03:46:58;28.55;27.29
75705;DHT22;70013;44.726;37.760;2023-05-19T03:48:18;28.70;27.28
75705;DHT22;70013;44.726;37.760;2023-05-19T03:49:39;28.79;27.05
75705;DHT22;70013;44.726;37.760;2023-05-19T03:50:59;28.95;26.68
75705;DHT22;70013;44.726;37.760;2023-05-19T03:52:01;29.17;26.52
75705;DHT22;70013;44.726;37.760;2023-05-19T03:53:21;29.46;26.03
75705;DHT22;70013;44.726;37.760;2023-05-19T03:54:23;29.65;25.57
75705;DHT22;70013;44.726;37.760;2023-05-19T03:55:26;29.87;25.63
75705;DHT22;70013;44.726;37.760;2023-05-19T03:56:30;30.10;25.19
75705;DHT22;70013;44.726;37.760;2023-05-19T03:57:33;30.36;24.96
75705;DHT22;70013;44.726;37.760;2023-05-19T03:58:34;30.55;24.66
75705;DHT22;70013;44.726;37.760;2023-05-19T03:59:39;30.76;24.04
75705;DHT22;70013;44.726;37.760;2023-05-19T04:00:41;30.96;23.67
75705;DHT22;70013;44.726;37.760;2023-05-19T04:01:43;31.19;23.58
75705;DHT22;70013;44.726;37.760;2023-05-19T04:02:44;31.37;23.57
75705;DHT22;70013;44.726;37.760;2023-05-19T04:03:46;31.56;23.69
75705;DHT22;70013;44.726;37.760;2023-05-19T04:04:48;31.75;22.86
75705;DHT22;70013;44.726;37.760;2023-05-19T04:05:51;31.96;22.72
75705;DHT22;70013;44.726;37.760;2023-05-19T04:06:52;32.14;22.35
75705;DHT22;70013;44.726;37.760;2023-05-19T04:07:54;32.31;22.02
75705;DHT22;70013;44.726;37.760;2023-05-19T04:08:56;32.46;22.05
75705;DHT22;70013;44.726;37.760;2023-05-19T04:09:57;32.67;21.72
75705;DHT22;70013;44.726;37.760;2023-05-19T04:10:58;32.86;21.27
75705;DHT22;70013;44.726;37.760;2023-05-19T04:12:01;32.90;21.29
75705;DHT22;70013;44.726;37.760;2023-05-19T04:13:05;32.59;21.64
75705;DHT22;70013;44.726;37.760;2023-05-19T04:14:06;32.37;21.73
75705;DHT22;70013;44.726;37.760;2023-05-19T04:15:08;32.16;21.79
75705;DHT22;70013;44.726;37.760;2023-05-19T04:16:12;31.95;21.73
75705;DHT22;70013;44.726;37.760;2023-05-19T04:17:14;32.09;21.34
75705;DHT22;70013;44.726;37.760;2023-05-19T04:18:15;32.01;21.34
75705;DHT22;70013;44.726;37.760;2023-05-19T04:19:17;31.84;22.23
75705;DHT22;70013;44.726;37.760;2023-05-19T04:20:19;31.67;21.98
75705;DHT22;70013;44.726;37.760;2023-05-19T04:21:20;31.52;22.06
75705;DHT22;70013;44.726;37.760;2023-05-19T04:22:22;31.48;22.53
75705;DHT22;70013;44.726;37.760;2023-05-19T04:23:23;31.50;21.92
75705;DHT22;70013;44.726;37.760;2023-05-19T04:24:25;31.52;22.25
75705;DHT22;70013;44.726;37.760;2023-05-19T04:25:26;31.61;21.70
75705;DHT22;70013;44.726;37.760;2023-05-19T04:26:28;31.69;21.83
75705;DHT22;70013;44.726;37.760;2023-05-19T04:27:31;32.04;25.30
75705;DHT22;70013;44.726;37.760;2023-05-19T04:28:36;32.41;26.47
75705;DHT22;70013;44.726;37.760;2023-05-19T04:29:40;32.63;27.13
75705;DHT22;70013;44.726;37.760;2023-05-19T04:30:42;32.48;31.64
75705;DHT22;70013;44.726;37.760;2023-05-19T04:31:46;32.23;32.36
75705;DHT22;70013;44.726;37.760;2023-05-19T04:32:49;32.09;31.40
75705;DHT22;70013;44.726;37.760;2023-05-19T04:33:53;31.98;32.42
75705;DHT22;70013;44.726;37.760;2023-05-19T04:34:56;31.84;28.93
75705;DHT22;70013;44.726;37.760;2023-05-19T04:36:00;31.70;27.70
75705;DHT22;70013;44.726;37.760;2023-05-19T04:37:06;31.59;29.39
75705;DHT22;70013;44.726;37.760;2023-05-19T04:38:10;31.66;27.74
75705;DHT22;70013;44.726;37.760;2023-05-19T04:39:12;31.79;28.86
75705;DHT22;70013;44.726;37.760;2023-05-19T04:40:17;32.19;26.26
75705;DHT22;70013;44.726;37.760;2023-05-19T04:41:21;32.58;26.94
75705;DHT22;70013;44.726;37.760;2023-05-19T04:42:23;32.98;27.10
75705;DHT22;70013;44.726;37.760;2023-05-19T04:43:27;33.41;24.92
75705;DHT22;70013;44.726;37.760;2023-05-19T04:44:29;33.76;24.36
75705;DHT22;70013;44.726;37.760;2023-05-19T04:45:31;34.12;26.55
75705;DHT22;70013;44.726;37.760;2023-05-19T04:46:35;34.52;23.83
75705;DHT22;70013;44.726;37.760;2023-05-19T04:47:36;34.90;22.49
75705;DHT22;70013;44.726;37.760;2023-05-19T04:48:38;35.28;21.16
75705;DHT22;70013;44.726;37.760;2023-05-19T04:49:42;35.70;22.24
75705;DHT22;70013;44.726;37.760;2023-05-19T04:50:44;36.01;22.00
75705;DHT22;70013;44.726;37.760;2023-05-19T04:51:45;36.33;22.31
75705;DHT22;70013;44.726;37.760;2023-05-19T04:52:52;36.66;20.78
75705;DHT22;70013;44.726;37.760;2023-05-19T04:53:54;36.95;20.65
75705;DHT22;70013;44.726;37.760;2023-05-19T04:54:55;37.19;21.90
75705;DHT22;70013;44.726;37.760;2023-05-19T04:55:58;37.51;21.77
75705;DHT22;70013;44.726;37.760;2023-05-19T04:57:05;37.76;19.06
75705;DHT22;70013;44.726;37.760;2023-05-19T04:58:10;38.05;18.48
75705;DHT22;70013;44.726;37.760;2023-05-19T04:59:11;38.29;18.81
75705;DHT22;70013;44.726;37.760;2023-05-19T05:00:13;38.51;16.69
75705;DHT22;70013;44.726;37.760;2023-05-19T05:01:32;38.91;18.38
75705;DHT22;70013;44.726;37.760;2023-05-19T05:02:34;39.17;16.45
75705;DHT22;70013;44.726;37.760;2023-05-19T05:03:36;39.36;18.32
75705;DHT22;70013;44.726;37.760;2023-05-19T05:04:38;39.59;16.62
75705;DHT22;70013;44.726;37.760;2023-05-19T05:05:42;39.81;15.58
75705;DHT22;70013;44.726;37.760;2023-05-19T05:06:45;39.95;15.75
75705;DHT22;70013;44.726;37.760;2023-05-19T05:07:48;40.18;16.70
75705;DHT22;70013;44.726;37.760;2023-05-19T05:08:51;40.35;14.67
75705;DHT22;70013;44.726;37.760;2023-05-19T05:09:52;40.45;15.45
75705;DHT22;70013;44.726;37.760;2023-05-19T05:10:54;40.56;16.60
75705;DHT22;70013;44.726;37.760;2023-05-19T05:11:56;40.28;14.00
75705;DHT22;70013;44.726;37.760;2023-05-19T05:12:59;40.10;15.00
75705;DHT22;70013;44.726;37.760;2023-05-19T05:14:01;40.13;15.93
75705;DHT22;70013;44.726;37.760;2023-05-19T05:15:04;40.02;16.80
75705;DHT22;70013;44.726;37.760;2023-05-19T05:16:08;39.85;15.75
75705;DHT22;70013;44.726;37.760;2023-05-19T05:17:10;39.89;16.13
75705;DHT22;70013;44.726;37.760;2023-05-19T05:18:13;39.82;16.08
75705;DHT22;70013;44.726;37.760;2023-05-19T05:19:15;39.84;14.77
75705;DHT22;70013;44.726;37.760;2023-05-19T05:20:17;39.96;15.93
75705;DHT22;70013;44.726;37.760;2023-05-19T05:21:19;39.88;14.75
75705;DHT22;70013;44.726;37.760;2023-05-19T05:22:21;39.71;14.53
75705;DHT22;70013;44.726;37.760;2023-05-19T05:23:23;39.54;14.51
75705;DHT22;70013;44.726;37.760;2023-05-19T05:24:25;39.52;16.71
75705;DHT22;70013;44.726;37.760;2023-05-19T05:25:31;39.27;15.08
75705;DHT22;70013;44.726;37.760;2023-05-19T05:26:33;39.29;15.50
75705;DHT22;70013;44.726;37.760;2023-05-19T05:27:35;39.51;15.58
75705;DHT22;70013;44.726;37.760;2023-05-19T05:28:40;39.81;15.43
75705;DHT22;70013;44.726;37.760;2023-05-19T05:29:42;40.11;14.60
75705;DHT22;70013;44.726;37.760;2023-05-19T05:30:44;40.26;14.53
75705;DHT22;70013;44.726;37.760;2023-05-19T05:31:48;40.28;14.99
75705;DHT22;70013;44.726;37.760;2023-05-19T05:32:50;40.15;15.43
75705;DHT22;70013;44.726;37.760;2023-05-19T05:34:06;40.26;14.34
75705;DHT22;70013;44.726;37.760;2023-05-19T05:35:08;40.31;14.93
75705;DHT22;70013;44.726;37.760;2023-05-19T05:36:09;40.44;14.61
75705;DHT22;70013;44.726;37.760;2023-05-19T05:37:11;40.59;13.72
75705;DHT22;70013;44.726;37.760;2023-05-19T05:38:12;40.46;13.91
75705;DHT22;70013;44.726;37.760;2023-05-19T05:39:14;40.33;14.67
75705;DHT22;70013;44.726;37.760;2023-05-19T05:40:18;40.10;16.10
75705;DHT22;70013;44.726;37.760;2023-05-19T05:41:20;39.86;15.64
75705;DHT22;70013;44.726;37.760;2023-05-19T05:42:24;39.63;16.35
75705;DHT22;70013;44.726;37.760;2023-05-19T05:43:26;39.43;15.45
75705;DHT22;70013;44.726;37.760;2023-05-19T05:44:32;39.13;15.40
75705;DHT22;70013;44.726;37.760;2023-05-19T05:45:36;38.84;16.61
75705;DHT22;70013;44.726;37.760;2023-05-19T05:46:38;38.51;15.66
75705;DHT22;70013;44.726;37.760;2023-05-19T05:47:39;38.22;17.00
75705;DHT22;70013;44.726;37.760;2023-05-19T05:48:42;37.99;17.11
75705;DHT22;70013;44.726;37.760;2023-05-19T05:49:45;37.75;16.60
75705;DHT22;70013;44.726;37.760;2023-05-19T05:50:49;37.46;17.67
75705;DHT22;70013;44.726;37.760;2023-05-19T05:51:56;37.21;17.37
75705;DHT22;70013;44.726;37.760;2023-05-19T05:53:00;36.99;17.29
75705;DHT22;70013;44.726;37.760;2023-05-19T05:54:05;36.72;17.69
75705;DHT22;70013;44.726;37.760;2023-05-19T05:55:11;36.42;17.26
75705;DHT22;70013;44.726;37.760;2023-05-19T05:56:14;36.25;17.77
75705;DHT22;70013;44.726;37.760;2023-05-19T05:57:23;36.00;17.52
75705;DHT22;70013;44.726;37.760;2023-05-19T05:58:26;35.84;18.22
75705;DHT22;70013;44.726;37.760;2023-05-19T05:59:28;35.70;19.39
75705;DHT22;70013;44.726;37.760;2023-05-19T06:00:30;35.53;17.80
75705;DHT22;70013;44.726;37.760;2023-05-19T06:01:31;35.37;18.10
75705;DHT22;70013;44.726;37.760;2023-05-19T06:02:33;35.23;18.18
75705;DHT22;70013;44.726;37.760;2023-05-19T06:03:35;35.08;18.93
75705;DHT22;70013;44.726;37.760;2023-05-19T06:04:41;34.97;18.84
75705;DHT22;70013;44.726;37.760;2023-05-19T06:06:07;34.80;18.64
75705;DHT22;70013;44.726;37.760;2023-05-19T06:07:09;34.67;18.99
75705;DHT22;70013;44.726;37.760;2023-05-19T06:08:12;34.52;19.44
75705;DHT22;70013;44.726;37.760;2023-05-19T06:09:13;34.41;18.82
75705;DHT22;70013;44.726;37.760;2023-05-19T06:10:17;34.30;19.47
75705;DHT22;70013;44.726;37.760;2023-05-19T06:11:18;34.21;19.41
75705;DHT22;70013;44.726;37.760;2023-05-19T06:12:20;34.09;19.22
75705;DHT22;70013;44.726;37.760;2023-05-19T06:13:24;34.01;20.25
75705;DHT22;70013;44.726;37.760;2023-05-19T06:14:26;33.92;20.15
75705;DHT22;70013;44.726;37.760;2023-05-19T06:15:49;33.82;20.10
75705;DHT22;70013;44.726;37.760;2023-05-19T06:16:55;33.78;20.33
75705;DHT22;70013;44.726;37.760;2023-05-19T06:17:57;33.73;20.50
75705;DHT22;70013;44.726;37.760;2023-05-19T06:18:58;33.68;20.82
75705;DHT22;70013;44.726;37.760;2023-05-19T06:20:03;33.65;20.86
75705;DHT22;70013;44.726;37.760;2023-05-19T06:21:06;33.62;19.97
75705;DHT22;70013;44.726;37.760;2023-05-19T06:22:10;33.59;19.69
75705;DHT22;70013;44.726;37.760;2023-05-19T06:23:12;33.59;20.12
75705;DHT22;70013;44.726;37.760;2023-05-19T06:24:13;33.60;20.59
75705;DHT22;70013;44.726;37.760;2023-05-19T06:25:16;33.64;20.16
75705;DHT22;70013;44.726;37.760;2023-05-19T06:26:17;33.64;20.04
75705;DHT22;70013;44.726;37.760;2023-05-19T06:27:19;33.60;19.99
75705;DHT22;70013;44.726;37.760;2023-05-19T06:28:21;33.59;21.12
75705;DHT22;70013;44.726;37.760;2023-05-19T06:29:24;33.60;19.94
75705;DHT22;70013;44.726;37.760;2023-05-19T06:30:27;33.59;20.44
75705;DHT22;70013;44.726;37.760;2023-05-19T06:31:52;33.64;20.18
75705;DHT22;70013;44.726;37.760;2023-05-19T06:32:53;33.71;20.15
75705;DHT22;70013;44.726;37.760;2023-05-19T06:33:55;33.71;20.49
75705;DHT22;70013;44.726;37.760;2023-05-19T06:34:56;33.77;20.03
75705;DHT22;70013;44.726;37.760;2023-05-19T06:35:58;33.80;20.27
75705;DHT22;70013;44.726;37.760;2023-05-19T06:37:00;33.92;19.87
75705;DHT22;70013;44.726;37.760;2023-05-19T06:38:02;34.04;20.11
75705;DHT22;70013;44.726;37.760;2023-05-19T06:39:04;34.16;19.70
75705;DHT22;70013;44.726;37.760;2023-05-19T06:40:07;34.33;19.52
75705;DHT22;70013;44.726;37.760;2023-05-19T06:41:10;34.64;19.54
75705;DHT22;70013;44.726;37.760;2023-05-19T06:42:12;35.12;19.18
75705;DHT22;70013;44.726;37.760;2023-05-19T06:43:41;36.06;18.54
75705;DHT22;70013;44.726;37.760;2023-05-19T06:44:48;36.68;18.15
75705;DHT22;70013;44.726;37.760;2023-05-19T06:45:50;37.32;17.13
75705;DHT22;70013;44.726;37.760;2023-05-19T06:46:52;37.84;17.00
75705;DHT22;70013;44.726;37.760;2023-05-19T06:47:54;38.34;16.64